Kezdőlap
METAR-TAF:

METAR-TAF

Repülőterek :

Jaroszlavl, Oroszország

földrajzi szélesség: 57-33-38N, földrajzi hosszúság: 040-09-27E, magasság: 87 m

Jelenlegi meteorológiai megfigyelések

A jelentés 48 perccel ezelõtt készült, 13:30 UTC
Délkeleti szél 4 kt
Hőmérséklet 0°C
Páratartalom 93%
Légköri nyomás 1013 hPa
Látótávolság: 6000 m
Borult 1100 lábon
enyhe havazás

METAR: UUDL 111330Z 14002MPS 6000 -SN OVC011 00/M01 Q1013 R23/590236 NOSIG RMK QFE752

Idő: 17:18 (14:18 UTC)

Előrejelzés

A jelentés 3 órával és 18 perccel ezelõtt készült, 11:00 UTC
Az előrejelzés 11-én 12 óra UTC és 12-én 12 óra UTC között érvényes
Dél-délkeleti szél 6 kt
Látótávolság: 8000 m
Borult 1100 lábon
11-én 12 óra UTC és 11-én 15 óra UTC között ideiglenes
Látótávolság: 3100 m
Borult 600 lábon
enyhe havazás, esõ

TAF: UUDL 111100Z 1112/1212 15003MPS 8000 OVC011 TEMPO 1112/1115 3100 -SNRA OVC006

Meteorológiai megfigyelések és előrejelzések több, mint 4000 repülőtéren (METAR és TAF jelentéseket).

A térképen piros és sárga pontok jelzik az elérhető meteorológiai állomásokat.

Mozgassa az egeret a pont fölött, hogy megjelenjen az állomás neve.

Azután kattintson az időjárási megfigyelések és előrejelzések megtekintéséhez.

A térkép megváltoztatása: kattintson a fekete keresztel jelölt zöld gombra ráközelítéshez, a vonallal jelölt zöld gombra távolításhoz, vagy a zöld nyilakra a szomszédos térképek eléréséhez.


METAR-TAF: